sensor_id;sensor_type;location;lat;lon;timestamp;P1;durP1;ratioP1;P2;durP2;ratioP2
5961;SDS011;3007;50.770;0.250;2023-04-29T00:01:13;19.00;;;15.70;;
5961;SDS011;3007;50.770;0.250;2023-04-29T00:03:39;23.53;;;16.60;;
5961;SDS011;3007;50.770;0.250;2023-04-29T00:06:08;22.07;;;16.47;;
5961;SDS011;3007;50.770;0.250;2023-04-29T00:08:35;23.60;;;17.73;;
5961;SDS011;3007;50.770;0.250;2023-04-29T00:11:02;23.10;;;15.80;;
5961;SDS011;3007;50.770;0.250;2023-04-29T00:13:29;23.23;;;16.90;;
5961;SDS011;3007;50.770;0.250;2023-04-29T00:15:55;23.20;;;17.73;;
5961;SDS011;3007;50.770;0.250;2023-04-29T00:18:22;23.87;;;18.00;;
5961;SDS011;3007;50.770;0.250;2023-04-29T00:20:49;23.63;;;17.17;;
5961;SDS011;3007;50.770;0.250;2023-04-29T00:23:17;23.10;;;18.50;;
5961;SDS011;3007;50.770;0.250;2023-04-29T00:25:44;28.47;;;19.30;;
5961;SDS011;3007;50.770;0.250;2023-04-29T00:28:11;21.30;;;17.03;;
5961;SDS011;3007;50.770;0.250;2023-04-29T00:30:38;23.60;;;19.50;;
5961;SDS011;3007;50.770;0.250;2023-04-29T00:33:05;24.37;;;17.80;;
5961;SDS011;3007;50.770;0.250;2023-04-29T00:35:32;25.80;;;17.67;;
5961;SDS011;3007;50.770;0.250;2023-04-29T00:37:58;29.63;;;19.20;;
5961;SDS011;3007;50.770;0.250;2023-04-29T00:40:27;25.90;;;19.00;;
5961;SDS011;3007;50.770;0.250;2023-04-29T00:42:54;23.77;;;18.80;;
5961;SDS011;3007;50.770;0.250;2023-04-29T00:45:21;27.43;;;20.03;;
5961;SDS011;3007;50.770;0.250;2023-04-29T00:47:48;26.57;;;20.73;;
5961;SDS011;3007;50.770;0.250;2023-04-29T00:50:15;29.93;;;19.27;;
5961;SDS011;3007;50.770;0.250;2023-04-29T00:52:42;28.73;;;19.37;;
5961;SDS011;3007;50.770;0.250;2023-04-29T00:55:10;23.90;;;17.97;;
5961;SDS011;3007;50.770;0.250;2023-04-29T00:57:39;26.93;;;21.17;;
5961;SDS011;3007;50.770;0.250;2023-04-29T01:00:07;24.57;;;19.70;;
5961;SDS011;3007;50.770;0.250;2023-04-29T01:02:35;24.90;;;18.73;;
5961;SDS011;3007;50.770;0.250;2023-04-29T01:05:02;26.73;;;20.13;;
5961;SDS011;3007;50.770;0.250;2023-04-29T01:07:30;31.17;;;21.73;;
5961;SDS011;3007;50.770;0.250;2023-04-29T01:10:08;30.43;;;21.00;;
5961;SDS011;3007;50.770;0.250;2023-04-29T01:12:43;28.47;;;21.23;;
5961;SDS011;3007;50.770;0.250;2023-04-29T01:15:16;27.27;;;19.93;;
5961;SDS011;3007;50.770;0.250;2023-04-29T01:17:59;26.20;;;19.40;;
5961;SDS011;3007;50.770;0.250;2023-04-29T01:20:31;28.37;;;20.20;;
5961;SDS011;3007;50.770;0.250;2023-04-29T01:22:59;27.37;;;19.67;;
5961;SDS011;3007;50.770;0.250;2023-04-29T01:25:27;29.30;;;23.17;;
5961;SDS011;3007;50.770;0.250;2023-04-29T01:27:56;33.83;;;21.97;;
5961;SDS011;3007;50.770;0.250;2023-04-29T01:30:34;29.57;;;20.70;;
5961;SDS011;3007;50.770;0.250;2023-04-29T01:33:10;30.93;;;21.97;;
5961;SDS011;3007;50.770;0.250;2023-04-29T01:35:51;32.00;;;21.80;;
5961;SDS011;3007;50.770;0.250;2023-04-29T01:38:29;29.60;;;22.03;;
5961;SDS011;3007;50.770;0.250;2023-04-29T01:41:08;31.80;;;21.80;;
5961;SDS011;3007;50.770;0.250;2023-04-29T01:43:38;30.50;;;22.10;;
5961;SDS011;3007;50.770;0.250;2023-04-29T01:46:05;36.40;;;23.37;;
5961;SDS011;3007;50.770;0.250;2023-04-29T01:48:35;32.87;;;21.53;;
5961;SDS011;3007;50.770;0.250;2023-04-29T01:51:02;33.63;;;23.60;;
5961;SDS011;3007;50.770;0.250;2023-04-29T01:53:30;36.83;;;24.33;;
5961;SDS011;3007;50.770;0.250;2023-04-29T01:55:57;34.20;;;25.43;;
5961;SDS011;3007;50.770;0.250;2023-04-29T01:58:25;35.90;;;24.97;;
5961;SDS011;3007;50.770;0.250;2023-04-29T02:00:53;36.50;;;25.27;;
5961;SDS011;3007;50.770;0.250;2023-04-29T02:03:20;37.73;;;25.43;;
5961;SDS011;3007;50.770;0.250;2023-04-29T02:05:47;35.73;;;24.43;;
5961;SDS011;3007;50.770;0.250;2023-04-29T02:08:14;33.00;;;23.80;;
5961;SDS011;3007;50.770;0.250;2023-04-29T02:10:41;34.57;;;24.73;;
5961;SDS011;3007;50.770;0.250;2023-04-29T02:13:17;37.70;;;24.60;;
5961;SDS011;3007;50.770;0.250;2023-04-29T02:15:45;37.63;;;25.07;;
5961;SDS011;3007;50.770;0.250;2023-04-29T02:18:12;34.20;;;24.53;;
5961;SDS011;3007;50.770;0.250;2023-04-29T02:20:39;33.70;;;24.53;;
5961;SDS011;3007;50.770;0.250;2023-04-29T02:23:07;33.73;;;25.33;;
5961;SDS011;3007;50.770;0.250;2023-04-29T02:25:34;33.97;;;25.23;;
5961;SDS011;3007;50.770;0.250;2023-04-29T02:28:01;38.63;;;26.43;;
5961;SDS011;3007;50.770;0.250;2023-04-29T02:30:28;29.03;;;23.20;;
5961;SDS011;3007;50.770;0.250;2023-04-29T02:32:56;35.30;;;26.00;;
5961;SDS011;3007;50.770;0.250;2023-04-29T02:35:23;37.73;;;25.40;;
5961;SDS011;3007;50.770;0.250;2023-04-29T02:37:50;34.63;;;25.03;;
5961;SDS011;3007;50.770;0.250;2023-04-29T02:40:17;34.47;;;24.20;;
5961;SDS011;3007;50.770;0.250;2023-04-29T02:42:44;36.13;;;25.23;;
5961;SDS011;3007;50.770;0.250;2023-04-29T02:45:11;38.57;;;25.90;;
5961;SDS011;3007;50.770;0.250;2023-04-29T02:47:38;33.50;;;25.43;;
5961;SDS011;3007;50.770;0.250;2023-04-29T02:50:06;33.87;;;24.70;;
5961;SDS011;3007;50.770;0.250;2023-04-29T02:52:34;40.13;;;26.53;;
5961;SDS011;3007;50.770;0.250;2023-04-29T02:55:01;34.37;;;26.00;;
5961;SDS011;3007;50.770;0.250;2023-04-29T02:57:28;38.47;;;26.33;;
5961;SDS011;3007;50.770;0.250;2023-04-29T02:59:56;34.67;;;25.37;;
5961;SDS011;3007;50.770;0.250;2023-04-29T03:02:23;37.47;;;24.77;;
5961;SDS011;3007;50.770;0.250;2023-04-29T03:04:50;34.97;;;24.83;;
5961;SDS011;3007;50.770;0.250;2023-04-29T03:07:18;33.77;;;26.50;;
5961;SDS011;3007;50.770;0.250;2023-04-29T03:09:45;39.93;;;26.63;;
5961;SDS011;3007;50.770;0.250;2023-04-29T03:12:12;36.03;;;25.90;;
5961;SDS011;3007;50.770;0.250;2023-04-29T03:14:40;35.07;;;24.70;;
5961;SDS011;3007;50.770;0.250;2023-04-29T03:17:07;36.73;;;26.03;;
5961;SDS011;3007;50.770;0.250;2023-04-29T03:19:34;40.17;;;26.40;;
5961;SDS011;3007;50.770;0.250;2023-04-29T03:22:01;38.57;;;25.23;;
5961;SDS011;3007;50.770;0.250;2023-04-29T03:24:29;42.37;;;27.90;;
5961;SDS011;3007;50.770;0.250;2023-04-29T03:26:56;35.70;;;24.17;;
5961;SDS011;3007;50.770;0.250;2023-04-29T03:29:24;39.83;;;27.00;;
5961;SDS011;3007;50.770;0.250;2023-04-29T03:31:51;41.50;;;29.37;;
5961;SDS011;3007;50.770;0.250;2023-04-29T03:34:18;43.90;;;25.70;;
5961;SDS011;3007;50.770;0.250;2023-04-29T03:36:45;40.23;;;25.77;;
5961;SDS011;3007;50.770;0.250;2023-04-29T03:39:12;45.20;;;28.23;;
5961;SDS011;3007;50.770;0.250;2023-04-29T03:41:40;36.83;;;26.20;;
5961;SDS011;3007;50.770;0.250;2023-04-29T03:44:07;37.63;;;26.80;;
5961;SDS011;3007;50.770;0.250;2023-04-29T03:46:34;41.03;;;26.63;;
5961;SDS011;3007;50.770;0.250;2023-04-29T03:49:01;41.53;;;27.90;;
5961;SDS011;3007;50.770;0.250;2023-04-29T03:51:28;39.33;;;27.53;;
5961;SDS011;3007;50.770;0.250;2023-04-29T03:53:55;41.30;;;27.97;;
5961;SDS011;3007;50.770;0.250;2023-04-29T03:56:23;40.10;;;26.53;;
5961;SDS011;3007;50.770;0.250;2023-04-29T03:58:51;40.63;;;26.33;;
5961;SDS011;3007;50.770;0.250;2023-04-29T04:01:18;36.83;;;25.47;;
5961;SDS011;3007;50.770;0.250;2023-04-29T04:03:45;36.80;;;25.03;;
5961;SDS011;3007;50.770;0.250;2023-04-29T04:06:12;42.23;;;27.97;;
5961;SDS011;3007;50.770;0.250;2023-04-29T04:08:39;42.80;;;27.60;;
5961;SDS011;3007;50.770;0.250;2023-04-29T04:11:06;47.73;;;29.53;;
5961;SDS011;3007;50.770;0.250;2023-04-29T04:13:33;45.37;;;27.23;;
5961;SDS011;3007;50.770;0.250;2023-04-29T04:16:02;43.20;;;28.30;;
5961;SDS011;3007;50.770;0.250;2023-04-29T04:18:29;38.47;;;26.70;;
5961;SDS011;3007;50.770;0.250;2023-04-29T04:20:56;39.43;;;27.20;;
5961;SDS011;3007;50.770;0.250;2023-04-29T04:23:23;41.57;;;27.67;;
5961;SDS011;3007;50.770;0.250;2023-04-29T04:25:50;42.60;;;27.27;;
5961;SDS011;3007;50.770;0.250;2023-04-29T04:28:17;43.57;;;27.03;;
5961;SDS011;3007;50.770;0.250;2023-04-29T04:30:45;41.37;;;27.10;;
5961;SDS011;3007;50.770;0.250;2023-04-29T04:33:13;39.37;;;26.53;;
5961;SDS011;3007;50.770;0.250;2023-04-29T04:35:41;47.80;;;29.03;;
5961;SDS011;3007;50.770;0.250;2023-04-29T04:38:08;42.67;;;26.27;;
5961;SDS011;3007;50.770;0.250;2023-04-29T04:40:37;42.10;;;26.93;;
5961;SDS011;3007;50.770;0.250;2023-04-29T04:43:06;41.03;;;26.33;;
5961;SDS011;3007;50.770;0.250;2023-04-29T04:45:33;44.87;;;27.47;;
5961;SDS011;3007;50.770;0.250;2023-04-29T04:48:00;42.43;;;26.03;;
5961;SDS011;3007;50.770;0.250;2023-04-29T04:50:29;39.00;;;26.47;;
5961;SDS011;3007;50.770;0.250;2023-04-29T04:52:55;49.27;;;28.03;;
5961;SDS011;3007;50.770;0.250;2023-04-29T04:55:22;48.80;;;29.87;;
5961;SDS011;3007;50.770;0.250;2023-04-29T04:57:50;43.93;;;27.53;;
5961;SDS011;3007;50.770;0.250;2023-04-29T05:00:16;44.27;;;28.93;;
5961;SDS011;3007;50.770;0.250;2023-04-29T05:02:43;45.53;;;28.77;;
5961;SDS011;3007;50.770;0.250;2023-04-29T05:05:10;42.17;;;28.00;;
5961;SDS011;3007;50.770;0.250;2023-04-29T05:07:38;42.77;;;28.70;;
5961;SDS011;3007;50.770;0.250;2023-04-29T05:10:05;47.03;;;29.10;;
5961;SDS011;3007;50.770;0.250;2023-04-29T05:12:33;42.03;;;26.87;;
5961;SDS011;3007;50.770;0.250;2023-04-29T05:15:00;47.93;;;27.67;;
5961;SDS011;3007;50.770;0.250;2023-04-29T05:17:27;42.20;;;27.60;;
5961;SDS011;3007;50.770;0.250;2023-04-29T05:19:54;41.40;;;28.17;;
5961;SDS011;3007;50.770;0.250;2023-04-29T05:22:21;40.80;;;27.27;;
5961;SDS011;3007;50.770;0.250;2023-04-29T05:24:50;44.13;;;27.70;;
5961;SDS011;3007;50.770;0.250;2023-04-29T05:27:18;41.67;;;26.63;;
5961;SDS011;3007;50.770;0.250;2023-04-29T05:29:45;39.23;;;24.90;;
5961;SDS011;3007;50.770;0.250;2023-04-29T05:32:12;40.80;;;25.17;;
5961;SDS011;3007;50.770;0.250;2023-04-29T05:34:39;42.47;;;25.93;;
5961;SDS011;3007;50.770;0.250;2023-04-29T05:37:06;38.47;;;25.87;;
5961;SDS011;3007;50.770;0.250;2023-04-29T05:39:33;37.10;;;24.03;;
5961;SDS011;3007;50.770;0.250;2023-04-29T05:42:01;36.93;;;24.90;;
5961;SDS011;3007;50.770;0.250;2023-04-29T05:44:28;32.57;;;22.97;;
5961;SDS011;3007;50.770;0.250;2023-04-29T05:46:55;34.97;;;23.40;;
5961;SDS011;3007;50.770;0.250;2023-04-29T05:49:22;36.90;;;23.27;;
5961;SDS011;3007;50.770;0.250;2023-04-29T05:51:48;33.50;;;21.83;;
5961;SDS011;3007;50.770;0.250;2023-04-29T05:54:15;28.73;;;20.77;;
5961;SDS011;3007;50.770;0.250;2023-04-29T05:56:42;32.93;;;20.27;;
5961;SDS011;3007;50.770;0.250;2023-04-29T05:59:11;32.20;;;20.77;;
5961;SDS011;3007;50.770;0.250;2023-04-29T06:01:38;27.73;;;19.43;;
5961;SDS011;3007;50.770;0.250;2023-04-29T06:04:04;27.63;;;19.37;;
5961;SDS011;3007;50.770;0.250;2023-04-29T06:06:31;29.70;;;19.53;;
5961;SDS011;3007;50.770;0.250;2023-04-29T06:08:59;26.73;;;19.13;;
5961;SDS011;3007;50.770;0.250;2023-04-29T06:11:26;25.90;;;19.47;;
5961;SDS011;3007;50.770;0.250;2023-04-29T06:13:53;25.33;;;18.83;;
5961;SDS011;3007;50.770;0.250;2023-04-29T06:16:21;28.73;;;19.30;;
5961;SDS011;3007;50.770;0.250;2023-04-29T06:18:48;23.27;;;15.57;;
5961;SDS011;3007;50.770;0.250;2023-04-29T06:21:15;22.97;;;16.17;;
5961;SDS011;3007;50.770;0.250;2023-04-29T06:23:42;23.30;;;16.40;;
5961;SDS011;3007;50.770;0.250;2023-04-29T06:26:09;22.93;;;16.77;;
5961;SDS011;3007;50.770;0.250;2023-04-29T06:28:36;27.87;;;16.20;;
5961;SDS011;3007;50.770;0.250;2023-04-29T06:31:03;20.20;;;15.50;;
5961;SDS011;3007;50.770;0.250;2023-04-29T06:33:31;20.70;;;15.07;;
5961;SDS011;3007;50.770;0.250;2023-04-29T06:35:58;21.93;;;16.03;;
5961;SDS011;3007;50.770;0.250;2023-04-29T06:38:25;22.23;;;13.70;;
5961;SDS011;3007;50.770;0.250;2023-04-29T06:40:52;19.43;;;15.00;;
5961;SDS011;3007;50.770;0.250;2023-04-29T06:43:19;20.50;;;14.73;;
5961;SDS011;3007;50.770;0.250;2023-04-29T06:45:46;20.47;;;14.13;;
5961;SDS011;3007;50.770;0.250;2023-04-29T06:48:13;21.33;;;13.57;;
5961;SDS011;3007;50.770;0.250;2023-04-29T06:50:48;19.53;;;13.47;;
5961;SDS011;3007;50.770;0.250;2023-04-29T06:53:16;21.67;;;14.13;;
5961;SDS011;3007;50.770;0.250;2023-04-29T06:55:43;19.10;;;13.27;;
5961;SDS011;3007;50.770;0.250;2023-04-29T06:58:10;18.70;;;12.60;;
5961;SDS011;3007;50.770;0.250;2023-04-29T07:00:37;18.93;;;13.10;;
5961;SDS011;3007;50.770;0.250;2023-04-29T07:03:04;17.70;;;12.83;;
5961;SDS011;3007;50.770;0.250;2023-04-29T07:05:31;14.40;;;11.60;;
5961;SDS011;3007;50.770;0.250;2023-04-29T07:07:59;17.10;;;12.20;;
5961;SDS011;3007;50.770;0.250;2023-04-29T07:10:26;18.87;;;12.27;;
5961;SDS011;3007;50.770;0.250;2023-04-29T07:12:53;17.53;;;11.23;;
5961;SDS011;3007;50.770;0.250;2023-04-29T07:15:20;13.97;;;10.83;;
5961;SDS011;3007;50.770;0.250;2023-04-29T07:17:47;15.40;;;10.27;;
5961;SDS011;3007;50.770;0.250;2023-04-29T07:20:14;14.13;;;9.93;;
5961;SDS011;3007;50.770;0.250;2023-04-29T07:22:41;14.53;;;10.30;;
5961;SDS011;3007;50.770;0.250;2023-04-29T07:25:09;15.20;;;10.47;;
5961;SDS011;3007;50.770;0.250;2023-04-29T07:27:36;12.27;;;9.03;;
5961;SDS011;3007;50.770;0.250;2023-04-29T07:30:04;15.03;;;9.93;;
5961;SDS011;3007;50.770;0.250;2023-04-29T07:32:31;11.90;;;8.60;;
5961;SDS011;3007;50.770;0.250;2023-04-29T07:34:58;13.37;;;9.53;;
5961;SDS011;3007;50.770;0.250;2023-04-29T07:37:27;13.57;;;9.47;;
5961;SDS011;3007;50.770;0.250;2023-04-29T07:39:54;14.37;;;9.83;;
5961;SDS011;3007;50.770;0.250;2023-04-29T07:42:22;13.00;;;9.97;;
5961;SDS011;3007;50.770;0.250;2023-04-29T07:44:49;14.03;;;10.17;;
5961;SDS011;3007;50.770;0.250;2023-04-29T07:47:16;13.60;;;9.27;;
5961;SDS011;3007;50.770;0.250;2023-04-29T07:49:43;12.33;;;8.50;;
5961;SDS011;3007;50.770;0.250;2023-04-29T07:52:10;10.57;;;8.23;;
5961;SDS011;3007;50.770;0.250;2023-04-29T07:54:37;14.87;;;9.50;;
5961;SDS011;3007;50.770;0.250;2023-04-29T07:57:03;10.67;;;8.23;;
5961;SDS011;3007;50.770;0.250;2023-04-29T07:59:32;9.93;;;7.77;;
5961;SDS011;3007;50.770;0.250;2023-04-29T08:01:59;11.10;;;7.53;;
5961;SDS011;3007;50.770;0.250;2023-04-29T08:04:26;9.80;;;7.13;;
5961;SDS011;3007;50.770;0.250;2023-04-29T08:06:52;13.00;;;8.10;;
5961;SDS011;3007;50.770;0.250;2023-04-29T08:09:19;8.67;;;7.77;;
5961;SDS011;3007;50.770;0.250;2023-04-29T08:11:46;8.87;;;6.60;;
5961;SDS011;3007;50.770;0.250;2023-04-29T08:14:13;10.17;;;7.53;;
5961;SDS011;3007;50.770;0.250;2023-04-29T08:16:41;13.57;;;8.47;;
5961;SDS011;3007;50.770;0.250;2023-04-29T08:19:08;10.70;;;7.87;;
5961;SDS011;3007;50.770;0.250;2023-04-29T08:21:35;9.30;;;7.90;;
5961;SDS011;3007;50.770;0.250;2023-04-29T08:24:02;9.20;;;7.37;;
5961;SDS011;3007;50.770;0.250;2023-04-29T08:26:29;10.27;;;7.27;;
5961;SDS011;3007;50.770;0.250;2023-04-29T08:28:56;9.37;;;6.93;;
5961;SDS011;3007;50.770;0.250;2023-04-29T08:31:24;14.03;;;7.47;;
5961;SDS011;3007;50.770;0.250;2023-04-29T08:33:52;8.60;;;6.47;;
5961;SDS011;3007;50.770;0.250;2023-04-29T08:36:20;9.50;;;7.57;;
5961;SDS011;3007;50.770;0.250;2023-04-29T08:38:46;9.53;;;7.53;;
5961;SDS011;3007;50.770;0.250;2023-04-29T08:41:16;9.53;;;7.20;;
5961;SDS011;3007;50.770;0.250;2023-04-29T08:43:43;9.60;;;7.87;;
5961;SDS011;3007;50.770;0.250;2023-04-29T08:46:10;8.87;;;7.30;;
5961;SDS011;3007;50.770;0.250;2023-04-29T08:48:38;8.83;;;7.47;;
5961;SDS011;3007;50.770;0.250;2023-04-29T08:51:06;7.87;;;6.90;;
5961;SDS011;3007;50.770;0.250;2023-04-29T08:53:36;9.57;;;7.80;;
5961;SDS011;3007;50.770;0.250;2023-04-29T08:56:07;8.07;;;7.23;;
5961;SDS011;3007;50.770;0.250;2023-04-29T08:58:37;9.23;;;7.63;;
5961;SDS011;3007;50.770;0.250;2023-04-29T09:01:06;11.27;;;8.23;;
5961;SDS011;3007;50.770;0.250;2023-04-29T09:03:36;9.40;;;7.53;;
5961;SDS011;3007;50.770;0.250;2023-04-29T09:06:11;10.70;;;8.00;;
5961;SDS011;3007;50.770;0.250;2023-04-29T09:08:38;11.20;;;8.33;;
5961;SDS011;3007;50.770;0.250;2023-04-29T09:11:07;10.63;;;7.57;;
5961;SDS011;3007;50.770;0.250;2023-04-29T09:13:35;12.23;;;8.07;;
5961;SDS011;3007;50.770;0.250;2023-04-29T09:16:02;9.13;;;7.70;;
5961;SDS011;3007;50.770;0.250;2023-04-29T09:18:43;11.50;;;7.97;;
5961;SDS011;3007;50.770;0.250;2023-04-29T09:21:13;9.13;;;7.33;;
5961;SDS011;3007;50.770;0.250;2023-04-29T09:23:41;9.23;;;7.53;;
5961;SDS011;3007;50.770;0.250;2023-04-29T09:26:09;9.30;;;7.53;;
5961;SDS011;3007;50.770;0.250;2023-04-29T09:28:36;8.93;;;7.47;;
5961;SDS011;3007;50.770;0.250;2023-04-29T09:31:03;8.87;;;7.53;;
5961;SDS011;3007;50.770;0.250;2023-04-29T09:33:45;9.17;;;7.67;;
5961;SDS011;3007;50.770;0.250;2023-04-29T09:36:25;8.90;;;7.03;;
5961;SDS011;3007;50.770;0.250;2023-04-29T09:39:01;9.93;;;7.83;;
5961;SDS011;3007;50.770;0.250;2023-04-29T09:41:29;10.83;;;8.13;;
5961;SDS011;3007;50.770;0.250;2023-04-29T09:44:01;10.20;;;7.43;;
5961;SDS011;3007;50.770;0.250;2023-04-29T09:46:29;10.97;;;7.03;;
5961;SDS011;3007;50.770;0.250;2023-04-29T09:48:57;10.50;;;7.20;;
5961;SDS011;3007;50.770;0.250;2023-04-29T09:51:25;8.70;;;7.10;;
5961;SDS011;3007;50.770;0.250;2023-04-29T09:53:52;11.20;;;8.10;;
5961;SDS011;3007;50.770;0.250;2023-04-29T09:56:19;9.67;;;7.60;;
5961;SDS011;3007;50.770;0.250;2023-04-29T09:58:46;9.83;;;7.00;;
5961;SDS011;3007;50.770;0.250;2023-04-29T10:01:13;9.80;;;7.33;;
5961;SDS011;3007;50.770;0.250;2023-04-29T10:03:44;8.73;;;6.90;;
5961;SDS011;3007;50.770;0.250;2023-04-29T10:06:13;8.70;;;6.90;;
5961;SDS011;3007;50.770;0.250;2023-04-29T10:08:44;9.83;;;6.90;;
5961;SDS011;3007;50.770;0.250;2023-04-29T10:11:13;12.40;;;8.30;;
5961;SDS011;3007;50.770;0.250;2023-04-29T10:13:41;11.70;;;7.50;;
5961;SDS011;3007;50.770;0.250;2023-04-29T10:16:12;8.35;;;6.90;;
5961;SDS011;3007;50.770;0.250;2023-04-29T10:18:47;10.20;;;7.30;;
5961;SDS011;3007;50.770;0.250;2023-04-29T10:21:19;9.30;;;7.47;;
5961;SDS011;3007;50.770;0.250;2023-04-29T10:23:51;11.93;;;8.67;;
5961;SDS011;3007;50.770;0.250;2023-04-29T10:26:19;9.30;;;7.87;;
5961;SDS011;3007;50.770;0.250;2023-04-29T10:28:47;8.80;;;6.87;;
5961;SDS011;3007;50.770;0.250;2023-04-29T10:31:16;8.63;;;7.50;;
5961;SDS011;3007;50.770;0.250;2023-04-29T10:33:46;11.00;;;6.93;;
5961;SDS011;3007;50.770;0.250;2023-04-29T10:36:14;10.03;;;7.50;;
5961;SDS011;3007;50.770;0.250;2023-04-29T10:38:43;9.82;;;6.85;;
5961;SDS011;3007;50.770;0.250;2023-04-29T10:41:15;10.50;;;6.55;;
5961;SDS011;3007;50.770;0.250;2023-04-29T10:43:48;9.17;;;6.50;;
5961;SDS011;3007;50.770;0.250;2023-04-29T10:46:16;8.32;;;6.15;;
5961;SDS011;3007;50.770;0.250;2023-04-29T10:48:43;8.60;;;6.10;;
5961;SDS011;3007;50.770;0.250;2023-04-29T10:51:10;7.43;;;6.63;;
5961;SDS011;3007;50.770;0.250;2023-04-29T10:56:39;10.88;;;6.38;;
5961;SDS011;3007;50.770;0.250;2023-04-29T10:59:11;8.43;;;6.00;;
5961;SDS011;3007;50.770;0.250;2023-04-29T11:01:42;10.38;;;6.78;;
5961;SDS011;3007;50.770;0.250;2023-04-29T11:04:13;9.43;;;5.85;;
5961;SDS011;3007;50.770;0.250;2023-04-29T11:06:43;9.25;;;5.72;;
5961;SDS011;3007;50.770;0.250;2023-04-29T11:09:12;9.50;;;6.55;;
5961;SDS011;3007;50.770;0.250;2023-04-29T11:11:45;8.07;;;5.80;;
5961;SDS011;3007;50.770;0.250;2023-04-29T11:14:24;8.15;;;6.05;;
5961;SDS011;3007;50.770;0.250;2023-04-29T11:16:55;8.88;;;6.05;;
5961;SDS011;3007;50.770;0.250;2023-04-29T11:19:24;7.65;;;5.93;;
5961;SDS011;3007;50.770;0.250;2023-04-29T11:22:14;7.47;;;5.95;;
5961;SDS011;3007;50.770;0.250;2023-04-29T11:24:52;8.73;;;6.63;;
5961;SDS011;3007;50.770;0.250;2023-04-29T11:27:22;8.40;;;6.07;;
5961;SDS011;3007;50.770;0.250;2023-04-29T11:29:51;10.67;;;5.93;;
5961;SDS011;3007;50.770;0.250;2023-04-29T11:32:22;9.83;;;5.47;;
5961;SDS011;3007;50.770;0.250;2023-04-29T11:34:50;9.57;;;5.70;;
5961;SDS011;3007;50.770;0.250;2023-04-29T11:37:20;9.10;;;5.73;;
5961;SDS011;3007;50.770;0.250;2023-04-29T11:39:48;9.93;;;6.03;;
5961;SDS011;3007;50.770;0.250;2023-04-29T11:42:18;6.70;;;5.27;;
5961;SDS011;3007;50.770;0.250;2023-04-29T11:44:49;7.93;;;4.77;;
5961;SDS011;3007;50.770;0.250;2023-04-29T11:47:17;7.77;;;4.93;;
5961;SDS011;3007;50.770;0.250;2023-04-29T11:49:45;8.43;;;5.03;;
5961;SDS011;3007;50.770;0.250;2023-04-29T11:52:12;12.80;;;5.43;;
5961;SDS011;3007;50.770;0.250;2023-04-29T11:54:39;8.50;;;5.63;;
5961;SDS011;3007;50.770;0.250;2023-04-29T11:57:08;7.17;;;4.70;;
5961;SDS011;3007;50.770;0.250;2023-04-29T11:59:36;6.23;;;4.30;;
5961;SDS011;3007;50.770;0.250;2023-04-29T12:02:04;7.57;;;4.93;;
5961;SDS011;3007;50.770;0.250;2023-04-29T12:04:32;6.60;;;4.37;;
5961;SDS011;3007;50.770;0.250;2023-04-29T12:07:01;5.53;;;4.20;;
5961;SDS011;3007;50.770;0.250;2023-04-29T12:09:29;5.40;;;4.53;;
5961;SDS011;3007;50.770;0.250;2023-04-29T12:12:07;6.53;;;4.50;;
5961;SDS011;3007;50.770;0.250;2023-04-29T12:14:34;7.83;;;4.87;;
5961;SDS011;3007;50.770;0.250;2023-04-29T12:17:01;8.97;;;5.00;;
5961;SDS011;3007;50.770;0.250;2023-04-29T12:19:29;5.13;;;4.10;;
5961;SDS011;3007;50.770;0.250;2023-04-29T12:21:57;9.80;;;4.93;;
5961;SDS011;3007;50.770;0.250;2023-04-29T12:24:25;8.07;;;5.30;;
5961;SDS011;3007;50.770;0.250;2023-04-29T12:26:51;8.27;;;5.00;;
5961;SDS011;3007;50.770;0.250;2023-04-29T12:29:20;8.87;;;5.10;;
5961;SDS011;3007;50.770;0.250;2023-04-29T12:31:48;8.47;;;5.00;;
5961;SDS011;3007;50.770;0.250;2023-04-29T12:34:15;8.07;;;4.53;;
5961;SDS011;3007;50.770;0.250;2023-04-29T12:36:44;7.03;;;4.90;;
5961;SDS011;3007;50.770;0.250;2023-04-29T12:39:11;7.33;;;4.40;;
5961;SDS011;3007;50.770;0.250;2023-04-29T12:41:38;8.53;;;5.13;;
5961;SDS011;3007;50.770;0.250;2023-04-29T12:44:06;8.50;;;5.27;;
5961;SDS011;3007;50.770;0.250;2023-04-29T12:46:34;7.07;;;4.83;;
5961;SDS011;3007;50.770;0.250;2023-04-29T12:49:02;11.93;;;5.93;;
5961;SDS011;3007;50.770;0.250;2023-04-29T12:51:29;7.50;;;5.10;;
5961;SDS011;3007;50.770;0.250;2023-04-29T12:53:58;7.87;;;4.90;;
5961;SDS011;3007;50.770;0.250;2023-04-29T12:56:27;9.20;;;5.30;;
5961;SDS011;3007;50.770;0.250;2023-04-29T12:58:54;9.40;;;5.80;;
5961;SDS011;3007;50.770;0.250;2023-04-29T13:01:21;8.10;;;5.17;;
5961;SDS011;3007;50.770;0.250;2023-04-29T13:03:48;7.10;;;5.27;;
5961;SDS011;3007;50.770;0.250;2023-04-29T13:06:15;9.70;;;5.93;;
5961;SDS011;3007;50.770;0.250;2023-04-29T13:08:43;7.87;;;5.47;;
5961;SDS011;3007;50.770;0.250;2023-04-29T13:11:11;10.27;;;5.40;;
5961;SDS011;3007;50.770;0.250;2023-04-29T13:13:38;7.37;;;5.90;;
5961;SDS011;3007;50.770;0.250;2023-04-29T13:16:06;11.80;;;5.40;;
5961;SDS011;3007;50.770;0.250;2023-04-29T13:18:33;10.63;;;6.13;;
5961;SDS011;3007;50.770;0.250;2023-04-29T13:21:00;11.80;;;6.00;;
5961;SDS011;3007;50.770;0.250;2023-04-29T13:23:27;10.13;;;5.50;;
5961;SDS011;3007;50.770;0.250;2023-04-29T13:25:54;10.77;;;6.40;;
5961;SDS011;3007;50.770;0.250;2023-04-29T13:28:22;11.20;;;6.23;;
5961;SDS011;3007;50.770;0.250;2023-04-29T13:30:49;9.50;;;6.43;;
5961;SDS011;3007;50.770;0.250;2023-04-29T13:33:17;10.77;;;5.57;;
5961;SDS011;3007;50.770;0.250;2023-04-29T13:35:44;10.67;;;5.93;;
5961;SDS011;3007;50.770;0.250;2023-04-29T13:38:11;9.53;;;6.33;;
5961;SDS011;3007;50.770;0.250;2023-04-29T13:40:38;10.93;;;6.70;;
5961;SDS011;3007;50.770;0.250;2023-04-29T13:43:05;10.77;;;5.63;;
5961;SDS011;3007;50.770;0.250;2023-04-29T13:45:33;12.67;;;6.57;;
5961;SDS011;3007;50.770;0.250;2023-04-29T13:48:00;13.77;;;6.37;;
5961;SDS011;3007;50.770;0.250;2023-04-29T13:50:27;12.23;;;6.10;;
5961;SDS011;3007;50.770;0.250;2023-04-29T13:52:54;10.10;;;6.20;;
5961;SDS011;3007;50.770;0.250;2023-04-29T13:55:21;12.47;;;5.80;;
5961;SDS011;3007;50.770;0.250;2023-04-29T13:57:48;9.77;;;6.23;;
5961;SDS011;3007;50.770;0.250;2023-04-29T14:00:17;10.40;;;5.70;;
5961;SDS011;3007;50.770;0.250;2023-04-29T14:02:45;11.40;;;5.83;;
5961;SDS011;3007;50.770;0.250;2023-04-29T14:05:12;9.37;;;5.60;;
5961;SDS011;3007;50.770;0.250;2023-04-29T14:07:40;10.73;;;5.67;;
5961;SDS011;3007;50.770;0.250;2023-04-29T14:10:07;10.60;;;6.30;;
5961;SDS011;3007;50.770;0.250;2023-04-29T14:12:34;8.93;;;5.60;;
5961;SDS011;3007;50.770;0.250;2023-04-29T14:15:01;11.77;;;6.00;;
5961;SDS011;3007;50.770;0.250;2023-04-29T14:17:28;10.93;;;6.37;;
5961;SDS011;3007;50.770;0.250;2023-04-29T14:19:56;10.27;;;6.53;;
5961;SDS011;3007;50.770;0.250;2023-04-29T14:22:23;11.23;;;6.27;;
5961;SDS011;3007;50.770;0.250;2023-04-29T14:24:51;11.53;;;5.50;;
5961;SDS011;3007;50.770;0.250;2023-04-29T14:27:18;11.43;;;6.53;;
5961;SDS011;3007;50.770;0.250;2023-04-29T14:29:45;9.97;;;6.13;;
5961;SDS011;3007;50.770;0.250;2023-04-29T14:32:12;13.37;;;6.43;;
5961;SDS011;3007;50.770;0.250;2023-04-29T14:34:39;7.70;;;6.10;;
5961;SDS011;3007;50.770;0.250;2023-04-29T14:37:07;12.53;;;6.40;;
5961;SDS011;3007;50.770;0.250;2023-04-29T14:39:35;8.37;;;6.30;;
5961;SDS011;3007;50.770;0.250;2023-04-29T14:42:02;10.37;;;6.57;;
5961;SDS011;3007;50.770;0.250;2023-04-29T14:44:29;9.33;;;6.33;;
5961;SDS011;3007;50.770;0.250;2023-04-29T14:46:56;9.43;;;6.83;;
5961;SDS011;3007;50.770;0.250;2023-04-29T14:49:23;7.57;;;5.60;;
5961;SDS011;3007;50.770;0.250;2023-04-29T14:51:50;11.40;;;6.07;;
5961;SDS011;3007;50.770;0.250;2023-04-29T14:54:18;12.57;;;6.47;;
5961;SDS011;3007;50.770;0.250;2023-04-29T14:56:45;11.87;;;5.43;;
5961;SDS011;3007;50.770;0.250;2023-04-29T14:59:12;16.57;;;6.90;;
5961;SDS011;3007;50.770;0.250;2023-04-29T15:01:39;7.37;;;5.83;;
5961;SDS011;3007;50.770;0.250;2023-04-29T15:04:06;11.57;;;5.93;;
5961;SDS011;3007;50.770;0.250;2023-04-29T15:06:33;9.20;;;6.03;;